createdAt,value
2023-07-21T00:00:33.257Z,14.74
2023-07-21T00:02:59.514Z,14.79
2023-07-21T00:05:25.833Z,14.73
2023-07-21T00:07:52.100Z,14.78
2023-07-21T00:10:18.352Z,14.56
2023-07-21T00:12:45.792Z,14.48
2023-07-21T00:15:12.011Z,14.43
2023-07-21T00:17:38.730Z,14.58
2023-07-21T00:20:05.000Z,14.39
2023-07-21T00:22:31.215Z,14.41
2023-07-21T00:24:57.469Z,14.41
2023-07-21T00:27:23.760Z,14.37
2023-07-21T00:29:49.971Z,14.13
2023-07-21T00:32:16.245Z,14.16
2023-07-21T00:34:42.903Z,13.93
2023-07-21T00:37:09.182Z,14.28
2023-07-21T00:39:35.484Z,14.28
2023-07-21T00:42:01.785Z,14.16
2023-07-21T00:44:28.006Z,14.00
2023-07-21T00:46:54.280Z,14.15
2023-07-21T00:49:21.281Z,14.20
2023-07-21T00:51:47.650Z,14.11
2023-07-21T00:54:13.946Z,14.21
2023-07-21T00:56:40.218Z,14.27
2023-07-21T00:59:06.487Z,14.30
2023-07-21T01:01:32.765Z,14.19
2023-07-21T01:03:59.069Z,14.31
2023-07-21T01:06:25.491Z,14.27
2023-07-21T01:11:18.197Z,14.30
2023-07-21T01:13:44.463Z,14.32
2023-07-21T01:16:10.710Z,14.25
2023-07-21T01:18:36.994Z,14.10
2023-07-21T01:21:03.267Z,14.17
2023-07-21T01:23:29.561Z,14.24
2023-07-21T01:25:55.866Z,14.23
2023-07-21T01:28:22.080Z,14.04
2023-07-21T01:30:48.471Z,14.14
2023-07-21T01:33:14.782Z,14.16
2023-07-21T01:35:41.096Z,14.25
2023-07-21T01:38:07.381Z,13.91
2023-07-21T01:40:33.672Z,14.08
2023-07-21T01:42:59.911Z,14.12
2023-07-21T01:45:26.144Z,14.08
2023-07-21T01:47:52.494Z,14.17
2023-07-21T01:50:18.779Z,14.29
2023-07-21T01:52:45.034Z,14.15
2023-07-21T01:55:11.334Z,14.04
2023-07-21T01:57:37.566Z,14.10
2023-07-21T02:00:04.310Z,13.93
2023-07-21T02:02:30.702Z,13.78
2023-07-21T02:04:57.138Z,13.94
2023-07-21T02:07:23.455Z,14.00
2023-07-21T02:09:49.717Z,13.97
2023-07-21T02:12:15.992Z,13.86
2023-07-21T02:14:42.266Z,13.97
2023-07-21T02:17:08.677Z,13.99
2023-07-21T02:19:35.008Z,13.94
2023-07-21T02:22:01.611Z,13.99
2023-07-21T02:24:27.945Z,14.08
2023-07-21T02:26:54.249Z,14.33
2023-07-21T02:29:20.562Z,14.19
2023-07-21T02:31:46.977Z,14.24
2023-07-21T02:34:13.676Z,14.26
2023-07-21T02:36:39.912Z,14.29
2023-07-21T02:39:06.179Z,14.38
2023-07-21T02:41:32.512Z,14.46
2023-07-21T02:43:58.794Z,14.53
2023-07-21T02:46:25.306Z,14.26
2023-07-21T02:48:51.736Z,14.36
2023-07-21T02:51:18.379Z,14.24
2023-07-21T02:53:44.631Z,14.27
2023-07-21T02:56:10.972Z,14.45
2023-07-21T02:58:37.386Z,14.41
2023-07-21T03:01:03.825Z,14.41
2023-07-21T03:03:30.299Z,14.49
2023-07-21T03:05:56.999Z,14.63
2023-07-21T03:08:23.261Z,14.60
2023-07-21T03:10:49.669Z,14.65
2023-07-21T03:13:15.999Z,14.64
2023-07-21T03:15:42.287Z,14.72
2023-07-21T03:18:08.561Z,14.68
2023-07-21T03:20:34.893Z,14.72
2023-07-21T03:23:01.242Z,14.78
2023-07-21T03:25:27.530Z,14.81
2023-07-21T03:27:53.782Z,14.81
2023-07-21T03:30:20.088Z,14.82
2023-07-21T03:32:56.006Z,14.87
2023-07-21T03:35:22.305Z,14.75
2023-07-21T03:37:48.588Z,14.78
2023-07-21T03:40:14.894Z,14.84
2023-07-21T03:42:41.172Z,14.82
2023-07-21T03:45:07.466Z,14.69
2023-07-21T03:47:33.874Z,14.79
2023-07-21T03:50:00.281Z,14.77
2023-07-21T03:52:26.560Z,14.87
2023-07-21T03:54:52.911Z,14.78
2023-07-21T03:57:19.206Z,14.86
2023-07-21T03:59:45.484Z,14.76
2023-07-21T04:02:11.758Z,14.73
2023-07-21T04:04:38.129Z,14.77
2023-07-21T04:07:04.502Z,14.62
2023-07-21T04:09:30.725Z,14.47
2023-07-21T04:11:56.960Z,14.55
2023-07-21T04:14:23.225Z,14.60
2023-07-21T04:16:49.500Z,14.61
2023-07-21T04:19:15.764Z,14.63
2023-07-21T04:21:42.040Z,14.49
2023-07-21T04:24:08.295Z,14.58
2023-07-21T04:26:34.514Z,14.50
2023-07-21T04:29:00.727Z,14.46
2023-07-21T04:31:27.117Z,14.32
2023-07-21T04:33:53.440Z,14.40
2023-07-21T04:36:19.666Z,14.42
2023-07-21T04:38:45.947Z,14.32
2023-07-21T04:41:12.227Z,14.45
2023-07-21T04:43:38.508Z,14.30
2023-07-21T04:46:04.770Z,14.34
2023-07-21T04:48:31.058Z,14.40
2023-07-21T04:50:57.306Z,14.26
2023-07-21T04:53:23.584Z,14.16
2023-07-21T04:55:49.834Z,14.21
2023-07-21T04:58:16.072Z,14.41
2023-07-21T05:00:42.349Z,14.43
2023-07-21T05:03:08.805Z,14.47
2023-07-21T05:05:35.112Z,14.60
2023-07-21T05:08:01.386Z,14.48
2023-07-21T05:10:27.677Z,14.40
2023-07-21T05:12:53.960Z,14.47
2023-07-21T05:15:20.354Z,14.48
2023-07-21T05:17:49.711Z,14.47
2023-07-21T05:20:15.990Z,14.44
2023-07-21T05:22:42.281Z,14.49
2023-07-21T05:25:08.597Z,14.55
2023-07-21T05:27:34.866Z,14.50
2023-07-21T05:30:01.092Z,14.45
2023-07-21T05:32:27.415Z,14.51
2023-07-21T05:34:53.732Z,14.58
2023-07-21T05:37:19.948Z,14.61
2023-07-21T05:39:46.150Z,14.69
2023-07-21T05:42:12.424Z,14.62
2023-07-21T05:44:38.716Z,14.66
2023-07-21T05:47:05.040Z,14.75
2023-07-21T05:49:31.359Z,14.85
2023-07-21T05:51:58.052Z,14.89
2023-07-21T05:54:24.342Z,14.68
2023-07-21T05:56:50.726Z,14.62
2023-07-21T05:59:17.092Z,14.59
2023-07-21T06:01:43.367Z,14.75
2023-07-21T06:04:09.653Z,14.78
2023-07-21T06:06:35.947Z,14.93
2023-07-21T06:09:02.201Z,15.05
2023-07-21T06:11:28.485Z,14.82
2023-07-21T06:13:54.837Z,15.04
2023-07-21T06:16:21.129Z,14.96
2023-07-21T06:18:47.406Z,14.88
2023-07-21T06:21:13.655Z,15.01
2023-07-21T06:23:39.936Z,15.18
2023-07-21T06:26:07.207Z,15.16
2023-07-21T06:28:33.517Z,15.30
2023-07-21T06:30:59.929Z,15.27
2023-07-21T06:33:26.271Z,15.45
2023-07-21T06:35:52.577Z,15.58
2023-07-21T06:38:18.876Z,15.60
2023-07-21T06:40:45.160Z,15.67
2023-07-21T06:43:11.420Z,15.62
2023-07-21T06:45:37.726Z,15.61
2023-07-21T06:48:04.136Z,15.81
2023-07-21T06:50:30.447Z,15.60
2023-07-21T06:52:56.695Z,15.78
2023-07-21T06:55:22.916Z,15.70
2023-07-21T06:57:49.171Z,15.72
2023-07-21T07:00:15.428Z,15.92
2023-07-21T07:02:41.698Z,15.75
2023-07-21T07:05:08.029Z,15.78
2023-07-21T07:07:34.416Z,15.96
2023-07-21T07:10:00.734Z,15.97
2023-07-21T07:12:27.081Z,16.02
2023-07-21T07:14:53.374Z,16.10
2023-07-21T07:17:19.655Z,15.94
2023-07-21T07:19:45.927Z,16.07
2023-07-21T07:22:12.167Z,16.08
2023-07-21T07:24:38.519Z,16.15
2023-07-21T07:27:04.767Z,16.33
2023-07-21T07:29:30.999Z,16.45
2023-07-21T07:31:57.255Z,16.46
2023-07-21T07:34:23.602Z,16.36
2023-07-21T07:36:49.904Z,16.34
2023-07-21T07:39:16.132Z,16.31
2023-07-21T07:41:42.361Z,16.40
2023-07-21T07:44:08.584Z,16.59
2023-07-21T07:46:34.899Z,16.60
2023-07-21T07:49:01.323Z,16.74
2023-07-21T07:51:27.829Z,16.67
2023-07-21T07:53:54.316Z,16.73
2023-07-21T07:56:20.561Z,16.79
2023-07-21T07:58:46.870Z,16.86
2023-07-21T08:01:13.159Z,16.83
2023-07-21T08:03:39.650Z,16.72
2023-07-21T08:06:06.016Z,16.88
2023-07-21T08:08:32.370Z,16.83
2023-07-21T08:10:58.693Z,17.07
2023-07-21T08:13:25.019Z,17.20
2023-07-21T08:15:51.370Z,17.35
2023-07-21T08:18:17.708Z,17.47
2023-07-21T08:20:44.460Z,17.49
2023-07-21T08:23:19.472Z,17.48
2023-07-21T08:25:50.040Z,17.55
2023-07-21T08:28:16.326Z,17.53
2023-07-21T08:30:56.616Z,17.76
2023-07-21T08:33:24.946Z,17.77
2023-07-21T08:35:51.268Z,17.87
2023-07-21T08:38:17.567Z,17.80
2023-07-21T08:40:43.806Z,17.64
2023-07-21T08:43:10.049Z,17.86
2023-07-21T08:45:36.353Z,18.02
2023-07-21T08:48:02.715Z,17.97
2023-07-21T08:50:31.347Z,18.19
2023-07-21T08:52:57.688Z,18.38
2023-07-21T08:55:23.993Z,18.50
2023-07-21T08:57:50.277Z,18.49
2023-07-21T09:00:16.490Z,18.36
2023-07-21T09:02:44.568Z,18.33
2023-07-21T09:05:11.093Z,18.09
2023-07-21T09:07:37.423Z,18.32
2023-07-21T09:10:04.103Z,18.17
2023-07-21T09:12:30.357Z,18.11
2023-07-21T09:14:56.632Z,18.26
2023-07-21T09:17:22.948Z,18.33
2023-07-21T09:19:49.250Z,18.40
2023-07-21T09:22:15.492Z,18.54
2023-07-21T09:24:41.825Z,18.50
2023-07-21T09:27:08.222Z,18.52
2023-07-21T09:29:34.594Z,18.82
2023-07-21T09:32:00.932Z,18.65
2023-07-21T09:34:27.197Z,18.66
2023-07-21T09:36:53.435Z,18.85
2023-07-21T09:39:19.704Z,18.96
2023-07-21T09:41:46.045Z,19.16
2023-07-21T09:44:12.337Z,19.06
2023-07-21T09:46:38.712Z,19.15
2023-07-21T09:49:04.991Z,19.11
2023-07-21T09:51:31.425Z,18.91
2023-07-21T09:53:57.669Z,18.80
2023-07-21T09:56:24.200Z,18.90
2023-07-21T09:58:50.934Z,18.98
2023-07-21T10:01:17.292Z,18.92
2023-07-21T10:03:43.815Z,18.86
2023-07-21T10:06:10.079Z,18.80
2023-07-21T10:08:36.445Z,19.02
2023-07-21T10:11:02.774Z,19.24
2023-07-21T10:13:29.159Z,19.41
2023-07-21T10:15:55.517Z,19.48
2023-07-21T10:18:21.864Z,19.36
2023-07-21T10:20:48.167Z,19.21
2023-07-21T10:23:14.435Z,19.44
2023-07-21T10:25:40.770Z,19.71
2023-07-21T10:28:07.051Z,19.37
2023-07-21T10:30:33.418Z,19.56
2023-07-21T10:32:59.756Z,19.82
2023-07-21T10:35:26.054Z,20.00
2023-07-21T10:37:52.357Z,19.85
2023-07-21T10:40:18.603Z,19.66
2023-07-21T10:42:44.979Z,19.65
2023-07-21T10:45:11.307Z,19.75
2023-07-21T10:47:37.663Z,19.76
2023-07-21T10:50:03.998Z,19.91
2023-07-21T10:52:30.251Z,20.23
2023-07-21T10:54:56.518Z,20.89
2023-07-21T10:57:22.782Z,21.23
2023-07-21T10:59:49.074Z,20.83
2023-07-21T11:02:15.433Z,20.22
2023-07-21T11:04:42.051Z,20.04
2023-07-21T11:07:08.791Z,19.90
2023-07-21T11:09:35.832Z,20.03
2023-07-21T11:12:02.769Z,20.21
2023-07-21T11:14:29.111Z,20.24
2023-07-21T11:16:55.917Z,20.65
2023-07-21T11:19:22.330Z,20.76
2023-07-21T11:21:50.900Z,20.44
2023-07-21T11:24:18.333Z,20.60
2023-07-21T11:26:44.610Z,20.77
2023-07-21T11:29:11.233Z,20.44
2023-07-21T11:31:37.592Z,20.37
2023-07-21T11:34:03.904Z,20.18
2023-07-21T11:36:30.191Z,19.98
2023-07-21T11:38:56.471Z,19.98
2023-07-21T11:41:22.801Z,19.94
2023-07-21T11:43:49.127Z,20.00
2023-07-21T11:46:15.458Z,20.09
2023-07-21T11:48:41.759Z,20.35
2023-07-21T11:51:08.190Z,20.28
2023-07-21T11:53:34.412Z,20.34
2023-07-21T11:56:00.756Z,20.56
2023-07-21T11:58:27.131Z,20.25
2023-07-21T12:00:53.432Z,19.92
2023-07-21T12:03:19.821Z,19.85
2023-07-21T12:05:46.328Z,20.02
2023-07-21T12:08:12.648Z,19.87
2023-07-21T12:10:39.207Z,19.94
2023-07-21T12:13:05.669Z,19.86
2023-07-21T12:15:31.967Z,19.56
2023-07-21T12:17:58.207Z,19.50
2023-07-21T12:20:24.433Z,19.66
2023-07-21T12:22:50.706Z,19.86
2023-07-21T12:25:16.990Z,19.94
2023-07-21T12:27:45.874Z,19.93
2023-07-21T12:30:12.465Z,19.74
2023-07-21T12:32:39.132Z,20.01
2023-07-21T12:35:05.516Z,20.55
2023-07-21T12:37:32.086Z,20.81
2023-07-21T12:39:58.381Z,21.09
2023-07-21T12:42:24.648Z,20.85
2023-07-21T12:44:50.871Z,21.03
2023-07-21T12:47:17.069Z,21.51
2023-07-21T12:49:43.303Z,21.46
2023-07-21T12:52:10.059Z,21.16
2023-07-21T12:54:36.344Z,21.29
2023-07-21T12:57:02.748Z,20.91
2023-07-21T12:59:29.996Z,21.11
2023-07-21T13:01:56.528Z,21.89
2023-07-21T13:04:23.221Z,22.36
2023-07-21T13:06:49.561Z,23.02
2023-07-21T13:09:15.813Z,23.42
2023-07-21T13:11:42.110Z,23.49
2023-07-21T13:14:08.395Z,23.05
2023-07-21T13:16:34.751Z,22.62
2023-07-21T13:19:01.102Z,21.54
2023-07-21T13:21:27.365Z,21.37
2023-07-21T13:23:53.830Z,21.30
2023-07-21T13:26:20.056Z,21.04
2023-07-21T13:28:51.185Z,20.59
2023-07-21T13:31:17.479Z,20.68
2023-07-21T13:33:43.762Z,20.69
2023-07-21T13:36:10.134Z,21.33
2023-07-21T13:38:36.387Z,21.85
2023-07-21T13:41:02.652Z,22.25
2023-07-21T13:43:28.919Z,22.70
2023-07-21T13:45:55.206Z,22.04
2023-07-21T13:48:21.633Z,21.57
2023-07-21T13:50:48.051Z,20.59
2023-07-21T13:53:14.320Z,20.30
2023-07-21T13:55:40.620Z,20.17
2023-07-21T13:58:06.842Z,19.84
2023-07-21T14:00:33.104Z,19.67
2023-07-21T14:02:59.572Z,19.39
2023-07-21T14:05:25.913Z,18.99
2023-07-21T14:07:52.217Z,18.60
2023-07-21T14:10:18.478Z,18.34
2023-07-21T14:12:45.851Z,18.15
2023-07-21T14:15:12.166Z,17.86
2023-07-21T14:17:38.522Z,17.72
2023-07-21T14:20:04.893Z,17.68
2023-07-21T14:22:31.205Z,17.67
2023-07-21T14:24:57.463Z,17.62
2023-07-21T14:27:23.774Z,17.64
2023-07-21T14:29:50.177Z,17.53
2023-07-21T14:32:16.515Z,17.17
2023-07-21T14:34:42.810Z,17.07
2023-07-21T14:37:09.071Z,17.06
2023-07-21T14:39:35.396Z,16.72
2023-07-21T14:42:01.746Z,16.59
2023-07-21T14:44:28.022Z,16.75
2023-07-21T14:46:54.334Z,16.98
2023-07-21T14:49:20.653Z,16.96
2023-07-21T14:51:46.921Z,16.97
2023-07-21T14:54:13.830Z,17.07
2023-07-21T14:56:40.198Z,17.03
2023-07-21T14:59:06.484Z,16.48
2023-07-21T15:01:32.843Z,16.25
2023-07-21T15:03:59.174Z,16.37
2023-07-21T15:06:25.887Z,16.37
2023-07-21T15:08:52.283Z,16.20
2023-07-21T15:11:18.562Z,16.48
2023-07-21T15:13:44.852Z,16.65
2023-07-21T15:16:11.134Z,16.86
2023-07-21T15:18:37.423Z,16.99
2023-07-21T15:21:03.682Z,17.02
2023-07-21T15:23:29.928Z,17.12
2023-07-21T15:25:56.218Z,17.28
2023-07-21T15:28:22.493Z,17.33
2023-07-21T15:30:50.254Z,17.18
2023-07-21T15:33:16.825Z,17.38
2023-07-21T15:35:43.197Z,17.44
2023-07-21T15:38:09.476Z,17.45
2023-07-21T15:40:35.807Z,17.46
2023-07-21T15:43:02.096Z,17.51
2023-07-21T15:45:28.394Z,17.51
2023-07-21T15:47:54.659Z,17.33
2023-07-21T15:50:20.978Z,17.45
2023-07-21T15:52:47.219Z,16.89
2023-07-21T15:55:14.642Z,16.82
2023-07-21T15:57:40.992Z,17.00
2023-07-21T16:00:07.285Z,16.70
2023-07-21T16:02:33.587Z,16.68
2023-07-21T16:04:59.983Z,16.67
2023-07-21T16:07:26.366Z,16.76
2023-07-21T16:09:56.421Z,16.87
2023-07-21T16:12:22.731Z,16.91
2023-07-21T16:14:48.947Z,16.92
2023-07-21T16:17:15.247Z,16.96
2023-07-21T16:19:41.533Z,16.96
2023-07-21T16:22:07.842Z,16.92
2023-07-21T16:24:34.210Z,16.97
2023-07-21T16:27:01.685Z,16.93
2023-07-21T16:29:27.927Z,16.76
2023-07-21T16:31:54.240Z,16.84
2023-07-21T16:34:20.629Z,16.74
2023-07-21T16:36:46.886Z,16.79
2023-07-21T16:39:13.514Z,16.80
2023-07-21T16:41:39.763Z,16.63
2023-07-21T16:44:05.999Z,16.71
2023-07-21T16:46:32.370Z,16.65
2023-07-21T16:48:58.685Z,16.54
2023-07-21T16:51:25.255Z,16.49
2023-07-21T16:53:51.686Z,16.56
2023-07-21T16:56:18.012Z,16.52
2023-07-21T16:58:44.272Z,16.63
2023-07-21T17:01:10.571Z,16.51
2023-07-21T17:03:37.079Z,16.71
2023-07-21T17:06:03.528Z,17.03
2023-07-21T17:08:29.788Z,17.10
2023-07-21T17:10:56.119Z,17.61
2023-07-21T17:13:22.350Z,18.13
2023-07-21T17:15:48.608Z,18.41
2023-07-21T17:18:14.935Z,18.61
2023-07-21T17:20:41.240Z,18.62
2023-07-21T17:23:07.528Z,18.48
2023-07-21T17:25:33.784Z,18.45
2023-07-21T17:28:00.095Z,18.53
2023-07-21T17:30:26.398Z,18.46
2023-07-21T17:32:54.091Z,18.39
2023-07-21T17:35:20.367Z,18.43
2023-07-21T17:37:46.572Z,18.37
2023-07-21T17:40:13.284Z,18.21
2023-07-21T17:42:39.809Z,18.25
2023-07-21T17:45:06.105Z,18.27
2023-07-21T17:47:32.385Z,18.05
2023-07-21T17:49:58.705Z,17.98
2023-07-21T17:52:24.984Z,17.82
2023-07-21T17:54:51.191Z,17.33
2023-07-21T17:57:17.488Z,17.41
2023-07-21T17:59:43.743Z,17.21
2023-07-21T18:02:10.051Z,17.15
2023-07-21T18:04:36.276Z,17.09
2023-07-21T18:07:02.565Z,16.90
2023-07-21T18:09:28.824Z,17.08
2023-07-21T18:11:55.078Z,17.24
2023-07-21T18:14:21.382Z,17.18
2023-07-21T18:16:47.673Z,17.27
2023-07-21T18:19:13.937Z,17.14
2023-07-21T18:21:40.333Z,16.99
2023-07-21T18:24:06.719Z,16.89
2023-07-21T18:26:33.515Z,16.81
2023-07-21T18:28:59.764Z,16.84
2023-07-21T18:31:26.215Z,16.75
2023-07-21T18:33:52.712Z,16.62
2023-07-21T18:36:18.959Z,16.66
2023-07-21T18:38:45.217Z,16.60
2023-07-21T18:41:11.431Z,16.52
2023-07-21T18:43:37.736Z,16.58
2023-07-21T18:46:06.736Z,16.54
2023-07-21T18:48:32.997Z,16.53
2023-07-21T18:50:59.235Z,16.57
2023-07-21T18:53:25.475Z,16.54
2023-07-21T18:55:51.832Z,16.58
2023-07-21T18:58:18.194Z,16.42
2023-07-21T19:00:44.510Z,16.35
2023-07-21T19:03:10.851Z,16.25
2023-07-21T19:05:37.289Z,16.26
2023-07-21T19:08:03.728Z,16.31
2023-07-21T19:10:30.031Z,16.16
2023-07-21T19:12:56.254Z,16.01
2023-07-21T19:15:22.485Z,16.06
2023-07-21T19:17:48.906Z,16.10
2023-07-21T19:20:15.598Z,15.99
2023-07-21T19:22:41.937Z,16.09
2023-07-21T19:25:08.192Z,16.12
2023-07-21T19:27:36.494Z,16.09
2023-07-21T19:30:02.803Z,15.94
2023-07-21T19:32:29.132Z,15.64
2023-07-21T19:34:55.411Z,15.59
2023-07-21T19:37:21.720Z,15.38
2023-07-21T19:39:48.005Z,15.22
2023-07-21T19:42:14.292Z,15.26
2023-07-21T19:44:40.582Z,15.13
2023-07-21T19:47:06.902Z,15.14
2023-07-21T19:49:33.194Z,15.20
2023-07-21T19:51:59.467Z,15.13
2023-07-21T19:54:25.677Z,15.20
2023-07-21T19:56:51.975Z,15.15
2023-07-21T19:59:18.248Z,15.08
2023-07-21T20:01:44.599Z,15.22
2023-07-21T20:04:11.089Z,15.17
2023-07-21T20:06:37.542Z,15.21
2023-07-21T20:09:03.934Z,15.34
2023-07-21T20:11:30.318Z,15.32
2023-07-21T20:13:56.625Z,15.03
2023-07-21T20:16:23.092Z,15.03
2023-07-21T20:18:49.434Z,14.95
2023-07-21T20:21:15.674Z,14.69
2023-07-21T20:23:41.976Z,14.72
2023-07-21T20:26:08.225Z,14.58
2023-07-21T20:28:34.477Z,14.57
2023-07-21T20:31:00.763Z,14.55
2023-07-21T20:33:27.096Z,14.44
2023-07-21T20:35:53.425Z,14.54
2023-07-21T20:38:19.750Z,14.54
2023-07-21T20:40:46.006Z,14.62
2023-07-21T20:43:12.213Z,14.65
2023-07-21T20:45:38.491Z,14.47
2023-07-21T20:48:05.023Z,14.41
2023-07-21T20:50:31.364Z,14.49
2023-07-21T20:52:57.665Z,14.53
2023-07-21T20:55:23.913Z,14.44
2023-07-21T20:57:50.545Z,14.26
2023-07-21T21:00:16.830Z,14.39
2023-07-21T21:02:46.011Z,14.28
2023-07-21T21:05:12.238Z,14.32
2023-07-21T21:07:38.500Z,14.23
2023-07-21T21:10:04.791Z,14.17
2023-07-21T21:12:31.019Z,14.15
2023-07-21T21:14:57.368Z,14.16
2023-07-21T21:17:24.507Z,14.20
2023-07-21T21:19:50.975Z,14.22
2023-07-21T21:22:17.485Z,14.17
2023-07-21T21:24:43.825Z,14.18
2023-07-21T21:27:10.255Z,14.07
2023-07-21T21:29:36.496Z,13.96
2023-07-21T21:32:02.799Z,14.04
2023-07-21T21:34:29.120Z,14.03
2023-07-21T21:36:55.431Z,14.00
2023-07-21T21:39:21.695Z,13.95
2023-07-21T21:41:47.966Z,14.03
2023-07-21T21:44:14.290Z,14.06
2023-07-21T21:46:40.583Z,14.14
2023-07-21T21:49:06.876Z,14.06
2023-07-21T21:51:33.465Z,14.04
2023-07-21T21:53:59.976Z,14.04
2023-07-21T21:56:26.364Z,14.00
2023-07-21T21:58:52.700Z,13.85
2023-07-21T22:01:19.045Z,13.97
2023-07-21T22:03:45.748Z,14.02
2023-07-21T22:06:12.114Z,14.01
2023-07-21T22:08:38.400Z,14.04
2023-07-21T22:11:04.785Z,13.97
2023-07-21T22:13:32.892Z,14.13
2023-07-21T22:16:00.307Z,14.04
2023-07-21T22:18:26.569Z,13.77
2023-07-21T22:20:53.241Z,13.77
2023-07-21T22:23:19.530Z,13.73
2023-07-21T22:25:45.792Z,13.67
2023-07-21T22:28:12.529Z,13.48
2023-07-21T22:30:38.852Z,13.42
2023-07-21T22:33:05.226Z,13.27
2023-07-21T22:35:31.577Z,13.28
2023-07-21T22:37:57.867Z,13.30
2023-07-21T22:40:27.612Z,13.40
2023-07-21T22:42:53.893Z,13.31
2023-07-21T22:45:20.133Z,13.26
2023-07-21T22:47:46.406Z,13.36
2023-07-21T22:50:12.704Z,13.24
2023-07-21T22:52:39.008Z,13.28
2023-07-21T22:55:05.231Z,13.28
2023-07-21T22:57:31.491Z,13.24
2023-07-21T22:59:57.760Z,13.33
2023-07-21T23:02:24.009Z,13.35
2023-07-21T23:04:50.356Z,13.33
2023-07-21T23:07:16.713Z,13.36
2023-07-21T23:09:43.008Z,13.37
2023-07-21T23:12:09.275Z,13.49
2023-07-21T23:14:35.565Z,13.35
2023-07-21T23:17:01.802Z,13.42
2023-07-21T23:19:28.079Z,13.48
2023-07-21T23:21:54.340Z,13.46
2023-07-21T23:24:20.615Z,13.46
2023-07-21T23:26:46.913Z,13.52
2023-07-21T23:29:13.155Z,13.51
2023-07-21T23:31:39.423Z,13.42
2023-07-21T23:34:05.655Z,13.35
2023-07-21T23:36:31.980Z,13.30
2023-07-21T23:38:58.266Z,13.26
2023-07-21T23:41:24.491Z,13.32
2023-07-21T23:43:50.762Z,13.43
2023-07-21T23:46:17.175Z,13.44
2023-07-21T23:48:43.501Z,13.40
2023-07-21T23:51:09.803Z,13.48
2023-07-21T23:53:36.270Z,13.39
2023-07-21T23:56:02.504Z,13.32
2023-07-21T23:58:28.806Z,13.19
